sensor_id;sensor_type;location;lat;lon;timestamp;temperature;humidity
61910;DHT22;47865;52.086;5.410;2022-09-24T00:01:33;14.30;99.90
61910;DHT22;47865;52.086;5.410;2022-09-24T00:04:03;14.30;99.90
61910;DHT22;47865;52.086;5.410;2022-09-24T00:06:38;14.30;99.90
61910;DHT22;47865;52.086;5.410;2022-09-24T00:09:06;14.30;99.90
61910;DHT22;47865;52.086;5.410;2022-09-24T00:11:33;14.20;99.90
61910;DHT22;47865;52.086;5.410;2022-09-24T00:14:00;14.20;99.90
61910;DHT22;47865;52.086;5.410;2022-09-24T00:16:29;14.20;99.90
61910;DHT22;47865;52.086;5.410;2022-09-24T00:18:59;14.20;99.90
61910;DHT22;47865;52.086;5.410;2022-09-24T00:21:29;14.20;99.90
61910;DHT22;47865;52.086;5.410;2022-09-24T00:23:58;14.10;99.90
61910;DHT22;47865;52.086;5.410;2022-09-24T00:26:26;14.20;99.90
61910;DHT22;47865;52.086;5.410;2022-09-24T00:29:14;14.20;99.90
61910;DHT22;47865;52.086;5.410;2022-09-24T00:31:41;14.10;99.90
61910;DHT22;47865;52.086;5.410;2022-09-24T00:34:08;14.10;99.90
61910;DHT22;47865;52.086;5.410;2022-09-24T00:36:36;14.10;99.90
61910;DHT22;47865;52.086;5.410;2022-09-24T00:39:03;14.10;99.90
61910;DHT22;47865;52.086;5.410;2022-09-24T00:41:33;14.10;99.90
61910;DHT22;47865;52.086;5.410;2022-09-24T00:44:01;14.10;99.90
61910;DHT22;47865;52.086;5.410;2022-09-24T00:46:47;14.10;99.90
61910;DHT22;47865;52.086;5.410;2022-09-24T00:49:16;14.10;99.90
61910;DHT22;47865;52.086;5.410;2022-09-24T00:51:46;14.10;99.90
61910;DHT22;47865;52.086;5.410;2022-09-24T00:54:21;14.00;99.90
61910;DHT22;47865;52.086;5.410;2022-09-24T00:56:50;14.00;99.90
61910;DHT22;47865;52.086;5.410;2022-09-24T00:59:19;14.00;99.90
61910;DHT22;47865;52.086;5.410;2022-09-24T01:01:50;14.00;99.90
61910;DHT22;47865;52.086;5.410;2022-09-24T01:04:20;13.90;99.90
61910;DHT22;47865;52.086;5.410;2022-09-24T01:06:48;14.00;99.90
61910;DHT22;47865;52.086;5.410;2022-09-24T01:09:19;13.90;99.90
61910;DHT22;47865;52.086;5.410;2022-09-24T01:12:01;13.90;99.90
61910;DHT22;47865;52.086;5.410;2022-09-24T01:29:01;13.90;99.90
61910;DHT22;47865;52.086;5.410;2022-09-24T01:31:33;14.00;99.90
61910;DHT22;47865;52.086;5.410;2022-09-24T01:34:03;14.00;99.90
61910;DHT22;47865;52.086;5.410;2022-09-24T01:36:35;13.90;99.90
61910;DHT22;47865;52.086;5.410;2022-09-24T01:39:05;13.90;99.90
61910;DHT22;47865;52.086;5.410;2022-09-24T01:41:35;13.90;99.90
61910;DHT22;47865;52.086;5.410;2022-09-24T01:44:02;13.80;99.90
61910;DHT22;47865;52.086;5.410;2022-09-24T01:46:33;13.80;99.90
61910;DHT22;47865;52.086;5.410;2022-09-24T01:49:03;13.90;99.90
61910;DHT22;47865;52.086;5.410;2022-09-24T01:51:44;13.80;99.90
61910;DHT22;47865;52.086;5.410;2022-09-24T01:54:36;13.80;99.90
61910;DHT22;47865;52.086;5.410;2022-09-24T01:57:12;13.80;99.90
61910;DHT22;47865;52.086;5.410;2022-09-24T01:59:45;13.90;99.90
61910;DHT22;47865;52.086;5.410;2022-09-24T02:05:02;13.90;99.90
61910;DHT22;47865;52.086;5.410;2022-09-24T02:07:37;13.90;99.90
61910;DHT22;47865;52.086;5.410;2022-09-24T02:10:16;13.90;99.90
61910;DHT22;47865;52.086;5.410;2022-09-24T02:12:46;13.90;99.90
61910;DHT22;47865;52.086;5.410;2022-09-24T02:15:31;13.80;99.90
61910;DHT22;47865;52.086;5.410;2022-09-24T02:18:02;13.80;99.90
61910;DHT22;47865;52.086;5.410;2022-09-24T02:20:33;13.80;99.90
61910;DHT22;47865;52.086;5.410;2022-09-24T02:23:01;13.80;99.90
61910;DHT22;47865;52.086;5.410;2022-09-24T02:25:51;13.80;99.90
61910;DHT22;47865;52.086;5.410;2022-09-24T02:28:20;13.80;99.90
61910;DHT22;47865;52.086;5.410;2022-09-24T02:30:52;13.80;99.90
61910;DHT22;47865;52.086;5.410;2022-09-24T02:33:22;13.80;99.90
61910;DHT22;47865;52.086;5.410;2022-09-24T02:36:10;13.70;99.90
61910;DHT22;47865;52.086;5.410;2022-09-24T02:38:37;13.70;99.90
61910;DHT22;47865;52.086;5.410;2022-09-24T02:41:05;13.70;99.90
61910;DHT22;47865;52.086;5.410;2022-09-24T02:43:35;13.70;99.90
61910;DHT22;47865;52.086;5.410;2022-09-24T02:46:02;13.70;99.90
61910;DHT22;47865;52.086;5.410;2022-09-24T02:48:28;13.60;99.90
61910;DHT22;47865;52.086;5.410;2022-09-24T02:50:55;13.60;99.90
61910;DHT22;47865;52.086;5.410;2022-09-24T02:53:22;13.60;99.90
61910;DHT22;47865;52.086;5.410;2022-09-24T02:55:49;13.60;99.90
61910;DHT22;47865;52.086;5.410;2022-09-24T02:58:15;13.60;99.90
61910;DHT22;47865;52.086;5.410;2022-09-24T03:00:42;13.60;99.90
61910;DHT22;47865;52.086;5.410;2022-09-24T03:03:09;13.60;99.90
61910;DHT22;47865;52.086;5.410;2022-09-24T03:05:36;13.60;99.90
61910;DHT22;47865;52.086;5.410;2022-09-24T03:08:03;13.60;99.90
61910;DHT22;47865;52.086;5.410;2022-09-24T03:10:30;13.60;99.90
61910;DHT22;47865;52.086;5.410;2022-09-24T03:12:56;13.60;99.90
61910;DHT22;47865;52.086;5.410;2022-09-24T03:15:23;13.60;99.90
61910;DHT22;47865;52.086;5.410;2022-09-24T03:17:51;13.50;99.90
61910;DHT22;47865;52.086;5.410;2022-09-24T03:20:18;13.50;99.90
61910;DHT22;47865;52.086;5.410;2022-09-24T03:22:48;13.60;99.90
61910;DHT22;47865;52.086;5.410;2022-09-24T03:25:15;13.50;99.90
61910;DHT22;47865;52.086;5.410;2022-09-24T03:27:42;13.50;99.90
61910;DHT22;47865;52.086;5.410;2022-09-24T03:30:09;13.50;99.90
61910;DHT22;47865;52.086;5.410;2022-09-24T03:32:56;13.50;99.90
61910;DHT22;47865;52.086;5.410;2022-09-24T03:35:23;13.50;99.90
61910;DHT22;47865;52.086;5.410;2022-09-24T03:37:50;13.60;99.90
61910;DHT22;47865;52.086;5.410;2022-09-24T03:40:16;13.50;99.90
61910;DHT22;47865;52.086;5.410;2022-09-24T03:42:43;13.60;99.90
61910;DHT22;47865;52.086;5.410;2022-09-24T03:45:10;13.50;99.90
61910;DHT22;47865;52.086;5.410;2022-09-24T03:47:37;13.50;99.90
61910;DHT22;47865;52.086;5.410;2022-09-24T03:50:04;13.50;99.90
61910;DHT22;47865;52.086;5.410;2022-09-24T03:52:31;13.50;99.90
61910;DHT22;47865;52.086;5.410;2022-09-24T03:54:58;13.50;99.90
61910;DHT22;47865;52.086;5.410;2022-09-24T03:57:25;13.60;99.90
61910;DHT22;47865;52.086;5.410;2022-09-24T03:59:51;13.50;99.90
61910;DHT22;47865;52.086;5.410;2022-09-24T04:02:18;13.50;99.90
61910;DHT22;47865;52.086;5.410;2022-09-24T04:04:45;13.60;99.90
61910;DHT22;47865;52.086;5.410;2022-09-24T04:07:12;13.50;99.90
61910;DHT22;47865;52.086;5.410;2022-09-24T04:09:39;13.50;99.90
61910;DHT22;47865;52.086;5.410;2022-09-24T04:12:06;13.50;99.90
61910;DHT22;47865;52.086;5.410;2022-09-24T04:14:33;13.50;99.90
61910;DHT22;47865;52.086;5.410;2022-09-24T04:16:59;13.50;99.90
61910;DHT22;47865;52.086;5.410;2022-09-24T04:19:26;13.50;99.90
61910;DHT22;47865;52.086;5.410;2022-09-24T04:21:53;13.50;99.90
61910;DHT22;47865;52.086;5.410;2022-09-24T04:24:19;13.50;99.90
61910;DHT22;47865;52.086;5.410;2022-09-24T04:26:46;13.60;99.90
61910;DHT22;47865;52.086;5.410;2022-09-24T04:29:13;13.60;99.90
61910;DHT22;47865;52.086;5.410;2022-09-24T04:31:40;13.60;99.90
61910;DHT22;47865;52.086;5.410;2022-09-24T04:34:08;13.60;99.90
61910;DHT22;47865;52.086;5.410;2022-09-24T04:36:35;13.60;99.90
61910;DHT22;47865;52.086;5.410;2022-09-24T04:39:02;13.60;99.90
61910;DHT22;47865;52.086;5.410;2022-09-24T04:41:29;13.60;99.90
61910;DHT22;47865;52.086;5.410;2022-09-24T04:43:56;13.60;99.90
61910;DHT22;47865;52.086;5.410;2022-09-24T04:46:23;13.60;99.90
61910;DHT22;47865;52.086;5.410;2022-09-24T04:48:50;13.50;99.90
61910;DHT22;47865;52.086;5.410;2022-09-24T04:51:17;13.60;99.90
61910;DHT22;47865;52.086;5.410;2022-09-24T04:53:44;13.50;99.90
61910;DHT22;47865;52.086;5.410;2022-09-24T04:56:13;13.50;99.90
61910;DHT22;47865;52.086;5.410;2022-09-24T04:58:40;13.50;99.90
61910;DHT22;47865;52.086;5.410;2022-09-24T05:01:07;13.60;99.90
61910;DHT22;47865;52.086;5.410;2022-09-24T05:03:34;13.50;99.90
61910;DHT22;47865;52.086;5.410;2022-09-24T05:06:01;13.60;99.90
61910;DHT22;47865;52.086;5.410;2022-09-24T05:08:28;13.60;99.90
61910;DHT22;47865;52.086;5.410;2022-09-24T05:10:54;13.60;99.90
61910;DHT22;47865;52.086;5.410;2022-09-24T05:13:21;13.60;99.90
61910;DHT22;47865;52.086;5.410;2022-09-24T05:15:48;13.60;99.90
61910;DHT22;47865;52.086;5.410;2022-09-24T05:18:15;13.60;99.90
61910;DHT22;47865;52.086;5.410;2022-09-24T05:20:41;13.60;99.90
61910;DHT22;47865;52.086;5.410;2022-09-24T05:23:08;13.70;99.90
61910;DHT22;47865;52.086;5.410;2022-09-24T05:25:35;13.60;99.90
61910;DHT22;47865;52.086;5.410;2022-09-24T05:28:24;13.60;99.90
61910;DHT22;47865;52.086;5.410;2022-09-24T05:30:56;13.70;99.90
61910;DHT22;47865;52.086;5.410;2022-09-24T05:33:22;13.60;99.90
61910;DHT22;47865;52.086;5.410;2022-09-24T05:35:56;13.70;99.90
61910;DHT22;47865;52.086;5.410;2022-09-24T05:38:23;13.60;99.90
61910;DHT22;47865;52.086;5.410;2022-09-24T05:40:50;13.60;99.90
61910;DHT22;47865;52.086;5.410;2022-09-24T05:43:17;13.70;99.90
61910;DHT22;47865;52.086;5.410;2022-09-24T05:45:47;13.70;99.90
61910;DHT22;47865;52.086;5.410;2022-09-24T05:48:16;13.60;99.90
61910;DHT22;47865;52.086;5.410;2022-09-24T05:50:43;13.70;99.90
61910;DHT22;47865;52.086;5.410;2022-09-24T05:53:10;13.70;99.90
61910;DHT22;47865;52.086;5.410;2022-09-24T05:55:37;13.70;99.90
61910;DHT22;47865;52.086;5.410;2022-09-24T05:58:05;13.60;99.90
61910;DHT22;47865;52.086;5.410;2022-09-24T06:00:33;13.70;99.90
61910;DHT22;47865;52.086;5.410;2022-09-24T06:03:09;13.70;99.90
61910;DHT22;47865;52.086;5.410;2022-09-24T06:05:37;13.70;99.90
61910;DHT22;47865;52.086;5.410;2022-09-24T06:08:04;13.70;99.90
61910;DHT22;47865;52.086;5.410;2022-09-24T06:10:31;13.70;99.90
61910;DHT22;47865;52.086;5.410;2022-09-24T06:12:58;13.70;99.90
61910;DHT22;47865;52.086;5.410;2022-09-24T06:15:24;13.80;99.90
61910;DHT22;47865;52.086;5.410;2022-09-24T06:17:53;13.80;99.90
61910;DHT22;47865;52.086;5.410;2022-09-24T06:20:23;13.80;99.90
61910;DHT22;47865;52.086;5.410;2022-09-24T06:22:54;13.80;99.90
61910;DHT22;47865;52.086;5.410;2022-09-24T06:25:20;13.80;99.90
61910;DHT22;47865;52.086;5.410;2022-09-24T06:27:59;13.80;99.90
61910;DHT22;47865;52.086;5.410;2022-09-24T06:30:34;13.80;99.90
61910;DHT22;47865;52.086;5.410;2022-09-24T06:33:03;13.90;99.90
61910;DHT22;47865;52.086;5.410;2022-09-24T06:35:34;13.90;99.90
61910;DHT22;47865;52.086;5.410;2022-09-24T06:38:02;13.90;99.90
61910;DHT22;47865;52.086;5.410;2022-09-24T06:40:30;13.90;99.90
61910;DHT22;47865;52.086;5.410;2022-09-24T06:43:04;14.00;99.90
61910;DHT22;47865;52.086;5.410;2022-09-24T06:45:32;13.90;99.90
61910;DHT22;47865;52.086;5.410;2022-09-24T06:48:00;13.90;99.90
61910;DHT22;47865;52.086;5.410;2022-09-24T06:50:30;13.90;99.90
61910;DHT22;47865;52.086;5.410;2022-09-24T06:52:57;14.00;99.90
61910;DHT22;47865;52.086;5.410;2022-09-24T06:55:24;14.00;99.90
61910;DHT22;47865;52.086;5.410;2022-09-24T06:58:08;14.00;99.90
61910;DHT22;47865;52.086;5.410;2022-09-24T07:00:36;14.00;99.90
61910;DHT22;47865;52.086;5.410;2022-09-24T07:03:05;14.00;99.90
61910;DHT22;47865;52.086;5.410;2022-09-24T07:05:33;14.00;99.90
61910;DHT22;47865;52.086;5.410;2022-09-24T07:08:08;14.10;99.90
61910;DHT22;47865;52.086;5.410;2022-09-24T07:10:35;14.10;99.90
61910;DHT22;47865;52.086;5.410;2022-09-24T07:13:03;14.10;99.90
61910;DHT22;47865;52.086;5.410;2022-09-24T07:15:30;14.10;99.90
61910;DHT22;47865;52.086;5.410;2022-09-24T07:17:57;14.10;99.90
61910;DHT22;47865;52.086;5.410;2022-09-24T07:20:24;14.10;99.90
61910;DHT22;47865;52.086;5.410;2022-09-24T07:22:53;14.20;99.90
61910;DHT22;47865;52.086;5.410;2022-09-24T07:25:21;14.20;99.90
61910;DHT22;47865;52.086;5.410;2022-09-24T07:27:48;14.20;99.90
61910;DHT22;47865;52.086;5.410;2022-09-24T07:30:16;14.20;99.90
61910;DHT22;47865;52.086;5.410;2022-09-24T07:32:43;14.30;99.90
61910;DHT22;47865;52.086;5.410;2022-09-24T07:35:09;14.20;99.90
61910;DHT22;47865;52.086;5.410;2022-09-24T07:37:36;14.20;99.90
61910;DHT22;47865;52.086;5.410;2022-09-24T07:40:03;14.20;99.90
61910;DHT22;47865;52.086;5.410;2022-09-24T07:42:30;14.30;99.90
61910;DHT22;47865;52.086;5.410;2022-09-24T07:44:57;14.20;99.90
61910;DHT22;47865;52.086;5.410;2022-09-24T07:47:24;14.10;99.90
61910;DHT22;47865;52.086;5.410;2022-09-24T07:49:51;14.20;99.90
61910;DHT22;47865;52.086;5.410;2022-09-24T07:52:18;14.20;99.90
61910;DHT22;47865;52.086;5.410;2022-09-24T07:54:45;14.20;99.90
61910;DHT22;47865;52.086;5.410;2022-09-24T07:57:12;14.30;99.90
61910;DHT22;47865;52.086;5.410;2022-09-24T07:59:39;14.30;99.90
61910;DHT22;47865;52.086;5.410;2022-09-24T08:02:16;14.30;99.90
61910;DHT22;47865;52.086;5.410;2022-09-24T08:04:44;14.30;99.90
61910;DHT22;47865;52.086;5.410;2022-09-24T08:07:12;14.30;99.90
61910;DHT22;47865;52.086;5.410;2022-09-24T08:09:39;14.30;99.90
61910;DHT22;47865;52.086;5.410;2022-09-24T08:12:06;14.30;99.90
61910;DHT22;47865;52.086;5.410;2022-09-24T08:14:34;14.30;99.90
61910;DHT22;47865;52.086;5.410;2022-09-24T08:17:01;14.40;99.90
61910;DHT22;47865;52.086;5.410;2022-09-24T08:19:28;14.40;99.90
61910;DHT22;47865;52.086;5.410;2022-09-24T08:21:56;14.50;99.90
61910;DHT22;47865;52.086;5.410;2022-09-24T08:24:24;14.50;99.90
61910;DHT22;47865;52.086;5.410;2022-09-24T08:26:51;14.50;99.90
61910;DHT22;47865;52.086;5.410;2022-09-24T08:29:18;14.40;99.90
61910;DHT22;47865;52.086;5.410;2022-09-24T08:31:45;14.40;99.90
61910;DHT22;47865;52.086;5.410;2022-09-24T08:34:12;14.40;99.90
61910;DHT22;47865;52.086;5.410;2022-09-24T08:36:39;14.40;99.90
61910;DHT22;47865;52.086;5.410;2022-09-24T08:39:09;14.40;99.90
61910;DHT22;47865;52.086;5.410;2022-09-24T08:41:45;14.40;99.90
61910;DHT22;47865;52.086;5.410;2022-09-24T08:44:22;14.50;99.90
61910;DHT22;47865;52.086;5.410;2022-09-24T08:47:15;14.50;99.90
61910;DHT22;47865;52.086;5.410;2022-09-24T08:50:41;14.50;99.90
61910;DHT22;47865;52.086;5.410;2022-09-24T08:53:12;14.50;99.90
61910;DHT22;47865;52.086;5.410;2022-09-24T08:55:47;14.50;99.90
61910;DHT22;47865;52.086;5.410;2022-09-24T08:58:43;14.60;99.90
61910;DHT22;47865;52.086;5.410;2022-09-24T09:06:09;14.50;99.90
61910;DHT22;47865;52.086;5.410;2022-09-24T09:08:48;14.40;99.90
61910;DHT22;47865;52.086;5.410;2022-09-24T09:11:34;14.40;99.90
61910;DHT22;47865;52.086;5.410;2022-09-24T09:17:02;14.50;99.90
61910;DHT22;47865;52.086;5.410;2022-09-24T09:19:33;14.40;99.90
61910;DHT22;47865;52.086;5.410;2022-09-24T09:22:10;14.50;99.90
61910;DHT22;47865;52.086;5.410;2022-09-24T09:24:49;14.50;99.90
61910;DHT22;47865;52.086;5.410;2022-09-24T09:27:17;14.50;99.90
61910;DHT22;47865;52.086;5.410;2022-09-24T09:35:14;14.60;99.90
61910;DHT22;47865;52.086;5.410;2022-09-24T09:40:52;14.60;99.90
61910;DHT22;47865;52.086;5.410;2022-09-24T09:43:22;14.50;99.90
61910;DHT22;47865;52.086;5.410;2022-09-24T09:46:18;14.60;99.90
61910;DHT22;47865;52.086;5.410;2022-09-24T09:48:52;14.60;99.90
61910;DHT22;47865;52.086;5.410;2022-09-24T09:51:24;14.70;99.90
61910;DHT22;47865;52.086;5.410;2022-09-24T09:53:59;14.80;99.90
61910;DHT22;47865;52.086;5.410;2022-09-24T09:56:34;14.90;99.90
61910;DHT22;47865;52.086;5.410;2022-09-24T09:59:16;14.90;99.90
61910;DHT22;47865;52.086;5.410;2022-09-24T10:01:50;14.90;99.90
61910;DHT22;47865;52.086;5.410;2022-09-24T10:04:35;14.80;99.90
61910;DHT22;47865;52.086;5.410;2022-09-24T10:07:08;14.90;99.90
61910;DHT22;47865;52.086;5.410;2022-09-24T10:09:35;14.90;99.90
61910;DHT22;47865;52.086;5.410;2022-09-24T10:12:18;14.90;99.90
61910;DHT22;47865;52.086;5.410;2022-09-24T10:15:02;15.00;99.90
61910;DHT22;47865;52.086;5.410;2022-09-24T10:17:38;14.90;99.90
61910;DHT22;47865;52.086;5.410;2022-09-24T10:20:26;14.90;99.90
61910;DHT22;47865;52.086;5.410;2022-09-24T10:23:01;14.90;99.90
61910;DHT22;47865;52.086;5.410;2022-09-24T10:25:29;14.90;99.90
61910;DHT22;47865;52.086;5.410;2022-09-24T10:27:59;15.00;99.90
61910;DHT22;47865;52.086;5.410;2022-09-24T10:31:12;15.00;99.90
61910;DHT22;47865;52.086;5.410;2022-09-24T10:33:43;15.00;99.90
61910;DHT22;47865;52.086;5.410;2022-09-24T10:38:40;15.00;99.90
61910;DHT22;47865;52.086;5.410;2022-09-24T10:41:34;15.10;99.90
61910;DHT22;47865;52.086;5.410;2022-09-24T10:44:08;15.10;99.90
61910;DHT22;47865;52.086;5.410;2022-09-24T10:58:03;15.10;99.90
61910;DHT22;47865;52.086;5.410;2022-09-24T11:00:51;15.10;99.90
61910;DHT22;47865;52.086;5.410;2022-09-24T11:06:16;15.10;99.90
61910;DHT22;47865;52.086;5.410;2022-09-24T11:09:04;15.10;99.90
61910;DHT22;47865;52.086;5.410;2022-09-24T11:25:33;15.10;99.90
61910;DHT22;47865;52.086;5.410;2022-09-24T11:36:28;15.40;99.90
61910;DHT22;47865;52.086;5.410;2022-09-24T11:41:48;15.50;99.90
61910;DHT22;47865;52.086;5.410;2022-09-24T11:52:53;15.60;99.90
61910;DHT22;47865;52.086;5.410;2022-09-24T11:55:29;15.60;99.90
61910;DHT22;47865;52.086;5.410;2022-09-24T12:00:48;15.60;99.90
61910;DHT22;47865;52.086;5.410;2022-09-24T12:03:21;15.60;99.90
61910;DHT22;47865;52.086;5.410;2022-09-24T12:06:06;15.50;99.90
61910;DHT22;47865;52.086;5.410;2022-09-24T12:08:38;15.40;99.90
61910;DHT22;47865;52.086;5.410;2022-09-24T12:11:18;15.40;99.90
61910;DHT22;47865;52.086;5.410;2022-09-24T12:16:39;15.10;99.90
61910;DHT22;47865;52.086;5.410;2022-09-24T12:21:56;14.80;99.90
61910;DHT22;47865;52.086;5.410;2022-09-24T12:24:40;14.80;99.90
61910;DHT22;47865;52.086;5.410;2022-09-24T12:27:16;14.70;99.90
61910;DHT22;47865;52.086;5.410;2022-09-24T12:29:59;14.80;99.90
61910;DHT22;47865;52.086;5.410;2022-09-24T12:35:58;14.80;99.90
61910;DHT22;47865;52.086;5.410;2022-09-24T12:46:47;14.80;99.90
61910;DHT22;47865;52.086;5.410;2022-09-24T12:51:54;14.70;99.90
61910;DHT22;47865;52.086;5.410;2022-09-24T12:56:50;14.70;99.90
61910;DHT22;47865;52.086;5.410;2022-09-24T12:59:25;14.60;99.90
61910;DHT22;47865;52.086;5.410;2022-09-24T13:01:52;14.60;99.90
61910;DHT22;47865;52.086;5.410;2022-09-24T13:06:47;14.70;99.90
61910;DHT22;47865;52.086;5.410;2022-09-24T13:09:39;14.70;99.90
61910;DHT22;47865;52.086;5.410;2022-09-24T13:17:16;14.60;99.90
61910;DHT22;47865;52.086;5.410;2022-09-24T13:19:45;14.60;99.90
61910;DHT22;47865;52.086;5.410;2022-09-24T13:22:30;14.70;99.90
61910;DHT22;47865;52.086;5.410;2022-09-24T13:27:38;14.70;99.90
61910;DHT22;47865;52.086;5.410;2022-09-24T13:30:32;14.80;99.90
61910;DHT22;47865;52.086;5.410;2022-09-24T13:36:03;14.80;99.90
61910;DHT22;47865;52.086;5.410;2022-09-24T13:41:21;14.80;99.90
61910;DHT22;47865;52.086;5.410;2022-09-24T13:46:45;14.80;99.90
61910;DHT22;47865;52.086;5.410;2022-09-24T13:49:18;15.00;99.90
61910;DHT22;47865;52.086;5.410;2022-09-24T13:51:56;15.00;99.90
61910;DHT22;47865;52.086;5.410;2022-09-24T13:54:32;15.00;99.90
61910;DHT22;47865;52.086;5.410;2022-09-24T13:57:41;14.90;99.90
61910;DHT22;47865;52.086;5.410;2022-09-24T14:00:22;14.90;99.90
61910;DHT22;47865;52.086;5.410;2022-09-24T14:02:53;15.00;99.90
61910;DHT22;47865;52.086;5.410;2022-09-24T14:05:22;15.10;99.90
61910;DHT22;47865;52.086;5.410;2022-09-24T14:08:09;15.10;99.90
61910;DHT22;47865;52.086;5.410;2022-09-24T14:10:38;15.10;99.90
61910;DHT22;47865;52.086;5.410;2022-09-24T14:13:13;15.20;99.90
61910;DHT22;47865;52.086;5.410;2022-09-24T14:18:24;15.30;99.90
61910;DHT22;47865;52.086;5.410;2022-09-24T14:21:03;15.20;99.90
61910;DHT22;47865;52.086;5.410;2022-09-24T14:23:47;15.30;99.90
61910;DHT22;47865;52.086;5.410;2022-09-24T14:26:40;15.20;99.90
61910;DHT22;47865;52.086;5.410;2022-09-24T14:29:26;15.20;99.90
61910;DHT22;47865;52.086;5.410;2022-09-24T14:31:57;15.20;99.90
61910;DHT22;47865;52.086;5.410;2022-09-24T14:34:32;15.30;99.90
61910;DHT22;47865;52.086;5.410;2022-09-24T14:37:11;15.30;99.90
61910;DHT22;47865;52.086;5.410;2022-09-24T14:39:42;15.10;99.90
61910;DHT22;47865;52.086;5.410;2022-09-24T14:42:20;15.20;99.90
61910;DHT22;47865;52.086;5.410;2022-09-24T14:44:48;15.20;99.90
61910;DHT22;47865;52.086;5.410;2022-09-24T14:47:31;15.20;99.90
61910;DHT22;47865;52.086;5.410;2022-09-24T14:49:59;15.30;99.90
61910;DHT22;47865;52.086;5.410;2022-09-24T14:52:32;15.30;99.90
61910;DHT22;47865;52.086;5.410;2022-09-24T14:55:18;15.30;99.90
61910;DHT22;47865;52.086;5.410;2022-09-24T14:57:47;15.40;99.90
61910;DHT22;47865;52.086;5.410;2022-09-24T15:00:28;15.40;99.90
61910;DHT22;47865;52.086;5.410;2022-09-24T15:03:02;15.40;99.90
61910;DHT22;47865;52.086;5.410;2022-09-24T15:05:29;15.40;99.90
61910;DHT22;47865;52.086;5.410;2022-09-24T15:10:55;15.40;99.90
61910;DHT22;47865;52.086;5.410;2022-09-24T15:13:26;15.40;99.90
61910;DHT22;47865;52.086;5.410;2022-09-24T15:16:28;15.40;99.90
61910;DHT22;47865;52.086;5.410;2022-09-24T15:21:41;15.50;99.90
61910;DHT22;47865;52.086;5.410;2022-09-24T15:24:08;15.50;99.90
61910;DHT22;47865;52.086;5.410;2022-09-24T15:26:38;15.50;99.90
61910;DHT22;47865;52.086;5.410;2022-09-24T15:29:06;15.60;99.90
61910;DHT22;47865;52.086;5.410;2022-09-24T15:31:33;15.60;99.90
61910;DHT22;47865;52.086;5.410;2022-09-24T15:34:00;15.50;99.90
61910;DHT22;47865;52.086;5.410;2022-09-24T15:36:27;15.60;99.90
61910;DHT22;47865;52.086;5.410;2022-09-24T15:39:02;15.70;99.90
61910;DHT22;47865;52.086;5.410;2022-09-24T15:41:29;15.50;99.90
61910;DHT22;47865;52.086;5.410;2022-09-24T15:43:57;15.50;99.90
61910;DHT22;47865;52.086;5.410;2022-09-24T15:46:25;15.50;99.90
61910;DHT22;47865;52.086;5.410;2022-09-24T15:48:52;15.50;99.90
61910;DHT22;47865;52.086;5.410;2022-09-24T15:51:21;15.50;99.90
61910;DHT22;47865;52.086;5.410;2022-09-24T15:53:48;15.40;99.90
61910;DHT22;47865;52.086;5.410;2022-09-24T15:56:15;15.30;99.90
61910;DHT22;47865;52.086;5.410;2022-09-24T15:58:42;15.20;99.90
61910;DHT22;47865;52.086;5.410;2022-09-24T16:01:14;15.10;99.90
61910;DHT22;47865;52.086;5.410;2022-09-24T16:03:43;15.10;99.90
61910;DHT22;47865;52.086;5.410;2022-09-24T16:06:11;15.10;99.90
61910;DHT22;47865;52.086;5.410;2022-09-24T16:08:38;15.00;99.90
61910;DHT22;47865;52.086;5.410;2022-09-24T16:11:05;14.90;99.90
61910;DHT22;47865;52.086;5.410;2022-09-24T16:13:35;14.90;99.90
61910;DHT22;47865;52.086;5.410;2022-09-24T16:16:05;14.90;99.90
61910;DHT22;47865;52.086;5.410;2022-09-24T16:18:33;14.90;99.90
61910;DHT22;47865;52.086;5.410;2022-09-24T16:21:04;14.90;99.90
61910;DHT22;47865;52.086;5.410;2022-09-24T16:23:31;14.80;99.90
61910;DHT22;47865;52.086;5.410;2022-09-24T16:25:59;14.80;99.90
61910;DHT22;47865;52.086;5.410;2022-09-24T16:28:27;14.80;99.90
61910;DHT22;47865;52.086;5.410;2022-09-24T16:30:54;14.80;99.90
61910;DHT22;47865;52.086;5.410;2022-09-24T16:33:21;14.80;99.90
61910;DHT22;47865;52.086;5.410;2022-09-24T16:35:48;14.70;99.90
61910;DHT22;47865;52.086;5.410;2022-09-24T16:38:16;14.70;99.90
61910;DHT22;47865;52.086;5.410;2022-09-24T16:40:48;14.70;99.90
61910;DHT22;47865;52.086;5.410;2022-09-24T16:43:17;14.70;99.90
61910;DHT22;47865;52.086;5.410;2022-09-24T16:45:44;14.70;99.90
61910;DHT22;47865;52.086;5.410;2022-09-24T16:48:11;14.60;99.90
61910;DHT22;47865;52.086;5.410;2022-09-24T16:50:39;14.60;99.90
61910;DHT22;47865;52.086;5.410;2022-09-24T16:53:06;14.50;99.90
61910;DHT22;47865;52.086;5.410;2022-09-24T16:55:33;14.50;99.90
61910;DHT22;47865;52.086;5.410;2022-09-24T16:58:00;14.60;99.90
61910;DHT22;47865;52.086;5.410;2022-09-24T17:00:27;14.50;99.90
61910;DHT22;47865;52.086;5.410;2022-09-24T17:02:55;14.40;99.90
61910;DHT22;47865;52.086;5.410;2022-09-24T17:05:22;14.40;99.90
61910;DHT22;47865;52.086;5.410;2022-09-24T17:07:49;14.30;99.90
61910;DHT22;47865;52.086;5.410;2022-09-24T17:10:16;14.30;99.90
61910;DHT22;47865;52.086;5.410;2022-09-24T17:12:50;14.30;99.90
61910;DHT22;47865;52.086;5.410;2022-09-24T17:15:19;14.20;99.90
61910;DHT22;47865;52.086;5.410;2022-09-24T17:17:46;14.20;99.90
61910;DHT22;47865;52.086;5.410;2022-09-24T17:20:17;14.20;99.90
61910;DHT22;47865;52.086;5.410;2022-09-24T17:22:44;14.20;99.90
61910;DHT22;47865;52.086;5.410;2022-09-24T17:25:12;14.10;99.90
61910;DHT22;47865;52.086;5.410;2022-09-24T17:27:39;14.10;99.90
61910;DHT22;47865;52.086;5.410;2022-09-24T17:30:07;14.10;99.90
61910;DHT22;47865;52.086;5.410;2022-09-24T17:32:34;14.10;99.90
61910;DHT22;47865;52.086;5.410;2022-09-24T17:35:01;14.10;99.90
61910;DHT22;47865;52.086;5.410;2022-09-24T17:37:28;14.00;99.90
61910;DHT22;47865;52.086;5.410;2022-09-24T17:39:55;14.00;99.90
61910;DHT22;47865;52.086;5.410;2022-09-24T17:42:22;13.90;99.90
61910;DHT22;47865;52.086;5.410;2022-09-24T17:44:49;13.90;99.90
61910;DHT22;47865;52.086;5.410;2022-09-24T17:47:16;13.90;99.90
61910;DHT22;47865;52.086;5.410;2022-09-24T17:49:43;13.80;99.90
61910;DHT22;47865;52.086;5.410;2022-09-24T17:52:09;13.80;99.90
61910;DHT22;47865;52.086;5.410;2022-09-24T17:54:39;13.90;99.90
61910;DHT22;47865;52.086;5.410;2022-09-24T17:57:06;13.80;99.90
61910;DHT22;47865;52.086;5.410;2022-09-24T17:59:33;13.80;99.90
61910;DHT22;47865;52.086;5.410;2022-09-24T18:02:00;13.70;99.90
61910;DHT22;47865;52.086;5.410;2022-09-24T18:04:27;13.70;99.90
61910;DHT22;47865;52.086;5.410;2022-09-24T18:06:56;13.70;99.90
61910;DHT22;47865;52.086;5.410;2022-09-24T18:09:23;13.70;99.90
61910;DHT22;47865;52.086;5.410;2022-09-24T18:11:51;13.70;99.90